Airfield :
LOGIN :

Register | Disclaimer

   EN    FR    IT 

 










Legend :    VFR   Marginal VFR   IFR   Intensive IFR   Very Intensive IFR
Visi :
Ceiling :
>= 8 km
>= 3000ft
5 to 8 km
1000 to 3000 ft
1500m to 5 km
500 to 1000 ft
800 to 1500m
200 to 500 ft
< 800m
< 200 ft
Symbols :   Thunderstorms  Fog  Heavy snow  Heavy precipitations  Wind > 20 kt
SIGMETs :     Misc.  Thunderstorms  Icing  Turbulence  Mountain Waves  Volcanic Ashes







- Airport Elevation : 194 ft
- IATA code : IEG


EPZG - Zielona Gora Babimost

CURRENT METAR :
  • 210330Z 06008KT 4000 SN BR BKN019 OVC027 M00/M01 Q1020

EXPIRED METARs :
  • 210300Z 06010KT 7000 -SN SCT020 OVC027 00/M02 Q1020
  • 210230Z 07010KT 7000 -SN SCT020 OVC026 00/M02 Q1020
  • 210200Z 06008KT 5000 -SN BR SCT028 OVC037 00/M02 Q1020
  • 210130Z 07010KT 040V100 5000 -SN BR BKN024 OVC043 00/M02 Q1020
  • 210100Z 07010KT 5000 -SN BR SCT024 BKN043 00/M02 Q1020

TAF TAF EPZG
Valid from the 21 at 03:00 until the 21 at 12:00 UTC


210230Z 2103/2112 07010KT 8000 BKN030
PROB40
TEMPO 2103/2109 2500 -SN BR BKN009
No reported NOTAMs for that airfield.
1 SIGMET reported for the Warszawa FIR (EPWW) :
 
Severe icing with freezing rain
EPWW SIGMET 1 VALID 210110/210400 EPWA
EPWW WARSAW FIR SEV ICE (FZRA) FCST S OF LINE N5020 E02340 - N5100 E01950 - N5020 E01650 SFC/FL050 STNR WKN=



MET'MAP, your aeronautical weather chart ! - Copyright ORBIFLY December 2007 - Disclaimer

ORBIFLY MET'MAP TEAM :

Programming & Development : Alexandra Zaïnal
Concept & Development : Baudouin d'Aumeries
Co-Development & Prog : Marc-Olivier Méhu
Technical & hardware support : Manuel Goepfert

Contact : metmap@orbifly.com




SOURCES & CREDITS :

   NOAA